West Woodward Airport
KWWR : now visible

Airfield :











YOU CAN JOIN US ON...

 
LOGIN :

Register | Disclaimer

   EN    FR    IT 

 









Legend :    VFR   Marginal VFR   IFR   Intensive IFR   Very Intensive IFR
Visi :
Ceiling :
>= 8 km
>= 3000ft
5 to 8 km
1000 to 3000 ft
1500m to 5 km
500 to 1000 ft
800 to 1500m
200 to 500 ft
< 800m
< 200 ft
Symbols :   Thunderstorms  Fog  Heavy snow  Heavy precipitations  Wind > 20 kt






- Airport Elevation : 2189 ft


KWWR - West Woodward

CURRENT METAR :
  • 241530Z AUTO 21012G18KT 10SM CLR 21/04 A3008 RMK AO2

EXPIRED METARs :
  • 241510Z AUTO 22015KT 10SM CLR 20/04 A3008 RMK AO2
  • 241450Z AUTO 22013G20KT 10SM CLR 20/03 A3007 RMK AO2
  • 241430Z AUTO 21016G20KT 10SM CLR 20/03 A3007 RMK AO2
  • 241410Z AUTO 21016KT 10SM CLR 19/03 A3007 RMK AO2
  • 241350Z AUTO 21015G19KT 10SM CLR 18/03 A3007 RMK AO2
  • 241330Z AUTO 21014G20KT 10SM CLR 18/03 A3005 RMK AO2
  • 241310Z AUTO 20015G20KT 10SM CLR 18/03 A3005 RMK AO2
  • 241250Z AUTO 21016G21KT 10SM CLR 17/03 A3005 RMK AO2

TAF KWWR
Valid from the 24 at 12:00 until the 25 at 12:00 UTC


241120Z 2412/2512 22015KT P6SM BKN250
FM241500 22010G18KT P6SM SCT250
FM242100 24008KT P6SM FEW250
FM250000 05009KT P6SM FEW250
KZKC FIR / North America



MET'MAP, your aeronautical weather chart ! - Copyright ORBIFLY December 2007 - Disclaimer

ORBIFLY MET'MAP TEAM :

Programming & Development : Alexandra Zaïnal
Concept & original design : Baudouin d'Aumeries
Assistance for programming : Marc-Olivier Méhu
Technical & hardware support : Manuel Goepfert

Contact : metmap@orbifly.com




SOURCES & CREDITS :

   NOAA       Earth
Advisory